createdAt,value
2022-08-26T00:02:11.712Z,5.05
2022-08-26T00:04:39.582Z,4.00
2022-08-26T00:07:07.019Z,4.00
2022-08-26T00:09:38.885Z,3.97
2022-08-26T00:12:07.367Z,4.15
2022-08-26T00:14:36.423Z,4.28
2022-08-26T00:17:04.023Z,4.43
2022-08-26T00:19:32.485Z,3.80
2022-08-26T00:21:59.788Z,4.00
2022-08-26T00:24:27.070Z,4.57
2022-08-26T00:26:54.476Z,4.00
2022-08-26T00:29:21.812Z,4.07
2022-08-26T00:31:50.221Z,4.03
2022-08-26T00:34:19.604Z,4.13
2022-08-26T00:36:49.191Z,4.40
2022-08-26T00:39:20.410Z,4.43
2022-08-26T00:41:48.513Z,4.43
2022-08-26T00:44:16.500Z,4.80
2022-08-26T00:46:50.364Z,5.10
2022-08-26T00:49:44.701Z,4.85
2022-08-26T00:52:20.209Z,5.15
2022-08-26T00:55:04.888Z,4.95
2022-08-26T00:57:33.702Z,5.40
2022-08-26T01:00:11.253Z,5.40
2022-08-26T01:02:39.019Z,5.03
2022-08-26T01:05:17.094Z,5.60
2022-08-26T01:07:45.026Z,4.78
2022-08-26T01:10:19.781Z,4.15
2022-08-26T01:12:59.297Z,4.28
2022-08-26T01:15:37.124Z,4.32
2022-08-26T01:18:06.405Z,4.22
2022-08-26T01:21:27.175Z,4.22
2022-08-26T01:23:57.493Z,3.40
2022-08-26T01:26:41.324Z,4.38
2022-08-26T01:29:16.838Z,4.55
2022-08-26T01:31:49.870Z,3.65
2022-08-26T01:34:35.147Z,3.97
2022-08-26T01:37:16.103Z,3.92
2022-08-26T01:39:49.306Z,3.50
2022-08-26T01:42:19.275Z,3.60
2022-08-26T01:44:54.438Z,4.15
2022-08-26T01:47:30.511Z,3.67
2022-08-26T01:50:03.473Z,3.42
2022-08-26T01:52:35.408Z,4.50
2022-08-26T01:55:03.009Z,3.97
2022-08-26T01:57:30.783Z,4.18
2022-08-26T02:00:02.143Z,4.43
2022-08-26T02:02:49.365Z,3.60
2022-08-26T02:05:22.083Z,3.80
2022-08-26T02:07:50.729Z,3.88
2022-08-26T02:10:18.261Z,4.70
2022-08-26T02:12:48.136Z,3.60
2022-08-26T02:15:15.579Z,3.80
2022-08-26T02:17:46.514Z,3.88
2022-08-26T02:20:20.283Z,3.70
2022-08-26T02:22:48.285Z,3.65
2022-08-26T02:25:27.284Z,3.80
2022-08-26T02:27:56.685Z,3.80
2022-08-26T02:30:31.605Z,4.03
2022-08-26T02:33:03.526Z,3.80
2022-08-26T02:35:33.818Z,3.90
2022-08-26T02:38:03.495Z,3.65
2022-08-26T02:40:42.137Z,4.20
2022-08-26T02:43:10.072Z,4.13
2022-08-26T02:45:37.425Z,4.47
2022-08-26T02:48:21.645Z,4.30
2022-08-26T02:50:49.552Z,4.75
2022-08-26T02:53:19.213Z,4.93
2022-08-26T02:55:52.708Z,5.00
2022-08-26T02:58:20.774Z,4.80
2022-08-26T03:00:53.423Z,4.78
2022-08-26T03:03:22.483Z,4.45
2022-08-26T03:05:53.336Z,4.32
2022-08-26T03:08:22.218Z,4.55
2022-08-26T03:10:49.741Z,4.20
2022-08-26T03:13:17.100Z,4.40
2022-08-26T03:15:44.629Z,4.80
2022-08-26T03:18:16.006Z,5.40
2022-08-26T03:20:44.013Z,4.75
2022-08-26T03:23:12.454Z,4.32
2022-08-26T03:25:40.117Z,4.95
2022-08-26T03:28:07.650Z,4.60
2022-08-26T03:30:44.842Z,3.90
2022-08-26T03:33:14.160Z,4.03
2022-08-26T03:35:45.058Z,3.50
2022-08-26T03:38:12.830Z,3.25
2022-08-26T03:40:42.721Z,4.35
2022-08-26T03:43:14.165Z,3.53
2022-08-26T03:45:42.584Z,4.03
2022-08-26T03:48:11.457Z,4.13
2022-08-26T03:50:39.610Z,3.80
2022-08-26T03:53:07.384Z,3.70
2022-08-26T03:55:34.952Z,3.53
2022-08-26T03:58:02.638Z,4.35
2022-08-26T04:00:30.322Z,3.55
2022-08-26T04:02:57.873Z,4.20
2022-08-26T04:05:25.625Z,3.95
2022-08-26T04:07:52.991Z,4.20
2022-08-26T04:10:29.224Z,4.47
2022-08-26T04:12:59.444Z,4.97
2022-08-26T04:15:27.802Z,4.40
2022-08-26T04:17:55.794Z,4.85
2022-08-26T04:20:23.469Z,4.90
2022-08-26T04:22:51.331Z,4.53
2022-08-26T04:25:18.914Z,4.90
2022-08-26T04:27:48.495Z,4.80
2022-08-26T04:30:16.725Z,4.75
2022-08-26T04:32:44.375Z,4.93
2022-08-26T04:35:12.124Z,4.25
2022-08-26T04:37:43.098Z,4.50
2022-08-26T04:40:10.931Z,4.63
2022-08-26T04:42:38.487Z,4.38
2022-08-26T04:45:10.159Z,4.65
2022-08-26T04:47:38.315Z,4.47
2022-08-26T04:50:08.315Z,4.30
2022-08-26T04:52:38.510Z,4.75
2022-08-26T04:55:08.635Z,4.50
2022-08-26T04:57:36.541Z,4.63
2022-08-26T05:00:13.314Z,4.25
2022-08-26T05:02:41.173Z,4.13
2022-08-26T05:05:10.571Z,4.35
2022-08-26T05:07:38.120Z,5.20
2022-08-26T05:10:08.924Z,4.97
2022-08-26T05:12:36.210Z,4.93
2022-08-26T05:15:06.777Z,5.20
2022-08-26T05:17:34.142Z,5.13
2022-08-26T05:20:01.596Z,5.50
2022-08-26T05:22:29.013Z,5.32
2022-08-26T05:24:56.237Z,5.25
2022-08-26T05:27:23.686Z,5.97
2022-08-26T05:29:54.552Z,5.65
2022-08-26T05:32:22.136Z,5.68
2022-08-26T05:34:56.989Z,5.85
2022-08-26T05:37:25.948Z,5.57
2022-08-26T05:39:53.258Z,5.85
2022-08-26T05:42:20.708Z,5.90
2022-08-26T05:44:56.052Z,5.25
2022-08-26T05:47:24.675Z,5.40
2022-08-26T05:49:52.033Z,5.05
2022-08-26T05:52:20.170Z,5.47
2022-08-26T05:54:47.842Z,6.45
2022-08-26T05:57:16.085Z,6.78
2022-08-26T05:59:46.020Z,6.25
2022-08-26T06:02:13.463Z,6.22
2022-08-26T06:04:41.087Z,5.43
2022-08-26T06:07:10.022Z,6.05
2022-08-26T06:09:39.717Z,4.90
2022-08-26T06:12:07.474Z,8.23
2022-08-26T06:14:36.086Z,6.47
2022-08-26T06:17:03.773Z,6.28
2022-08-26T06:19:32.899Z,6.38
2022-08-26T06:22:23.436Z,6.00
2022-08-26T06:25:10.190Z,5.90
2022-08-26T06:27:37.770Z,5.72
2022-08-26T06:30:06.005Z,5.80
2022-08-26T06:32:33.720Z,5.22
2022-08-26T06:35:01.329Z,5.30
2022-08-26T06:37:28.838Z,4.82
2022-08-26T06:39:56.656Z,5.63
2022-08-26T06:42:25.159Z,5.30
2022-08-26T06:44:52.493Z,6.30
2022-08-26T06:47:19.769Z,6.47
2022-08-26T06:49:47.162Z,6.35
2022-08-26T06:52:15.196Z,5.55
2022-08-26T06:54:47.311Z,5.82
2022-08-26T06:57:14.667Z,5.40
2022-08-26T06:59:44.174Z,5.57
2022-08-26T07:02:13.598Z,5.72
2022-08-26T07:04:41.775Z,5.20
2022-08-26T07:07:14.632Z,7.00
2022-08-26T07:09:42.082Z,5.05
2022-08-26T07:12:09.623Z,4.95
2022-08-26T07:14:38.350Z,4.90
2022-08-26T07:17:10.067Z,4.95
2022-08-26T07:19:39.547Z,4.65
2022-08-26T07:22:07.280Z,4.57
2022-08-26T07:24:40.233Z,4.15
2022-08-26T07:27:15.089Z,4.10
2022-08-26T07:29:43.631Z,4.00
2022-08-26T07:32:14.853Z,4.22
2022-08-26T07:34:43.783Z,4.45
2022-08-26T07:37:11.482Z,4.53
2022-08-26T07:39:40.285Z,3.72
2022-08-26T07:42:09.803Z,3.83
2022-08-26T07:44:38.428Z,3.65
2022-08-26T07:47:10.482Z,4.00
2022-08-26T07:52:27.597Z,3.60
2022-08-26T07:54:58.575Z,3.50
2022-08-26T07:57:27.765Z,3.35
2022-08-26T07:59:57.249Z,3.70
2022-08-26T08:02:26.527Z,3.15
2022-08-26T08:04:55.047Z,3.63
2022-08-26T08:07:25.767Z,3.65
2022-08-26T08:10:11.649Z,3.70
2022-08-26T08:12:40.996Z,3.78
2022-08-26T08:15:13.743Z,4.20
2022-08-26T08:17:43.719Z,4.07
2022-08-26T08:20:14.457Z,3.95
2022-08-26T08:22:42.922Z,4.40
2022-08-26T08:25:12.699Z,3.85
2022-08-26T08:27:43.071Z,4.25
2022-08-26T08:30:13.759Z,4.10
2022-08-26T08:32:43.554Z,4.47
2022-08-26T08:35:22.397Z,4.10
2022-08-26T08:37:54.258Z,4.15
2022-08-26T08:40:26.075Z,4.10
2022-08-26T08:43:14.987Z,4.35
2022-08-26T08:45:53.424Z,4.55
2022-08-26T08:48:33.793Z,4.38
2022-08-26T08:51:48.026Z,4.38
2022-08-26T08:54:15.934Z,4.60
2022-08-26T08:57:13.063Z,4.63
2022-08-26T09:00:03.665Z,5.05
2022-08-26T09:02:51.571Z,4.80
2022-08-26T09:05:37.057Z,7.35
2022-08-26T09:08:20.230Z,6.47
2022-08-26T09:11:01.550Z,9.40
2022-08-26T09:13:31.545Z,9.25
2022-08-26T09:16:39.742Z,10.25
2022-08-26T09:19:38.754Z,10.48
2022-08-26T09:22:09.297Z,8.50
2022-08-26T09:24:42.089Z,7.85
2022-08-26T09:27:45.523Z,7.95
2022-08-26T09:30:33.031Z,7.72
2022-08-26T09:33:06.584Z,8.05
2022-08-26T09:35:48.666Z,8.07
2022-08-26T09:38:33.253Z,7.47
2022-08-26T09:41:07.041Z,6.70
2022-08-26T09:43:36.110Z,6.85
2022-08-26T09:46:29.474Z,4.93
2022-08-26T09:48:56.985Z,6.30
2022-08-26T09:51:32.016Z,6.32
2022-08-26T09:54:03.862Z,7.10
2022-08-26T09:56:39.269Z,7.40
2022-08-26T09:59:12.071Z,6.28
2022-08-26T10:01:43.598Z,6.75
2022-08-26T10:04:26.758Z,5.78
2022-08-26T10:07:08.229Z,5.90
2022-08-26T10:09:45.530Z,5.50
2022-08-26T10:12:21.947Z,5.05
2022-08-26T10:15:13.525Z,5.57
2022-08-26T10:17:57.235Z,5.65
2022-08-26T10:20:31.336Z,5.50
2022-08-26T10:23:15.793Z,5.50
2022-08-26T10:26:05.789Z,6.95
2022-08-26T10:29:07.496Z,6.40
2022-08-26T10:31:55.395Z,5.00
2022-08-26T10:34:32.374Z,7.63
2022-08-26T10:37:16.807Z,6.47
2022-08-26T10:39:57.296Z,5.95
2022-08-26T10:42:38.219Z,5.57
2022-08-26T10:45:19.729Z,5.47
2022-08-26T10:48:11.080Z,6.03
2022-08-26T10:50:47.633Z,6.93
2022-08-26T10:54:21.998Z,5.15
2022-08-26T10:57:43.029Z,5.13
2022-08-26T11:00:43.913Z,5.30
2022-08-26T11:03:33.023Z,4.95
2022-08-26T11:06:18.849Z,5.03
2022-08-26T11:09:09.227Z,4.32
2022-08-26T11:11:50.812Z,4.18
2022-08-26T11:14:28.892Z,5.10
2022-08-26T11:16:59.767Z,4.25
2022-08-26T11:19:59.658Z,4.90
2022-08-26T11:22:47.455Z,5.30
2022-08-26T11:25:23.553Z,4.07
2022-08-26T11:28:00.579Z,3.95
2022-08-26T11:30:44.071Z,5.50
2022-08-26T11:33:51.083Z,4.63
2022-08-26T11:36:56.188Z,5.00
2022-08-26T11:39:56.976Z,5.88
2022-08-26T11:43:08.322Z,4.78
2022-08-26T11:45:47.441Z,4.70
2022-08-26T11:48:22.952Z,4.90
2022-08-26T11:51:24.874Z,5.35
2022-08-26T11:54:12.035Z,4.93
2022-08-26T11:56:42.350Z,4.47
2022-08-26T11:59:17.981Z,5.50
2022-08-26T12:01:51.441Z,4.40
2022-08-26T12:04:43.615Z,5.30
2022-08-26T12:07:15.732Z,5.37
2022-08-26T12:10:03.818Z,5.60
2022-08-26T12:12:38.459Z,5.53
2022-08-26T12:15:14.515Z,5.35
2022-08-26T12:17:45.323Z,6.88
2022-08-26T12:20:48.779Z,5.65
2022-08-26T12:23:40.608Z,5.95
2022-08-26T12:26:31.391Z,5.13
2022-08-26T12:29:27.427Z,5.18
2022-08-26T12:32:18.398Z,5.10
2022-08-26T12:34:49.039Z,5.45
2022-08-26T12:37:21.956Z,6.53
2022-08-26T12:39:49.893Z,5.00
2022-08-26T12:42:24.176Z,5.90
2022-08-26T12:45:06.570Z,4.80
2022-08-26T12:47:44.106Z,4.93
2022-08-26T12:50:25.079Z,4.60
2022-08-26T12:53:07.026Z,4.60
2022-08-26T12:59:23.086Z,4.60
2022-08-26T13:01:55.071Z,5.32
2022-08-26T13:04:43.017Z,5.93
2022-08-26T13:07:26.428Z,5.35
2022-08-26T13:10:01.673Z,4.68
2022-08-26T13:12:37.437Z,6.72
2022-08-26T13:15:08.398Z,5.38
2022-08-26T13:17:36.214Z,5.18
2022-08-26T13:20:05.046Z,5.13
2022-08-26T13:22:32.767Z,4.50
2022-08-26T13:25:00.590Z,6.28
2022-08-26T13:27:28.615Z,5.35
2022-08-26T13:29:57.691Z,5.55
2022-08-26T13:32:29.493Z,4.72
2022-08-26T13:35:07.643Z,5.18
2022-08-26T13:37:35.657Z,5.00
2022-08-26T13:40:07.247Z,4.63
2022-08-26T13:42:35.685Z,3.92
2022-08-26T13:45:04.816Z,3.63
2022-08-26T13:47:33.570Z,4.03
2022-08-26T13:50:05.197Z,3.88
2022-08-26T13:52:32.616Z,3.20
2022-08-26T13:55:00.860Z,4.00
2022-08-26T13:57:31.768Z,3.63
2022-08-26T13:59:59.630Z,3.50
2022-08-26T14:02:28.300Z,3.70
2022-08-26T14:04:55.939Z,3.40
2022-08-26T14:07:24.315Z,3.13
2022-08-26T14:09:53.164Z,3.45
2022-08-26T14:12:20.935Z,3.22
2022-08-26T14:14:48.503Z,3.25
2022-08-26T14:17:24.498Z,3.80
2022-08-26T14:20:02.435Z,3.35
2022-08-26T14:22:34.228Z,3.65
2022-08-26T14:25:01.982Z,3.67
2022-08-26T14:27:33.023Z,3.70
2022-08-26T14:30:03.473Z,3.97
2022-08-26T14:32:32.640Z,3.65
2022-08-26T14:35:02.384Z,4.03
2022-08-26T14:37:32.033Z,4.00
2022-08-26T14:39:59.700Z,3.70
2022-08-26T14:42:31.410Z,3.63
2022-08-26T14:45:05.596Z,4.20
2022-08-26T14:47:33.254Z,3.80
2022-08-26T14:50:00.720Z,3.83
2022-08-26T14:52:28.091Z,3.33
2022-08-26T14:54:55.543Z,4.10
2022-08-26T14:57:24.303Z,3.70
2022-08-26T14:59:51.817Z,4.85
2022-08-26T15:02:27.761Z,4.03
2022-08-26T15:05:16.837Z,3.78
2022-08-26T15:07:47.338Z,4.20
2022-08-26T15:10:17.931Z,3.78
2022-08-26T15:12:46.590Z,3.80
2022-08-26T15:15:17.655Z,4.03
2022-08-26T15:17:45.445Z,4.45
2022-08-26T15:20:13.742Z,3.33
2022-08-26T15:22:43.198Z,4.32
2022-08-26T15:25:12.291Z,3.90
2022-08-26T15:27:40.369Z,4.82
2022-08-26T15:30:11.715Z,4.10
2022-08-26T15:32:39.343Z,3.92
2022-08-26T15:35:09.310Z,4.85
2022-08-26T15:37:36.959Z,3.58
2022-08-26T15:40:05.611Z,3.47
2022-08-26T15:42:33.221Z,3.20
2022-08-26T15:45:03.578Z,3.53
2022-08-26T15:47:31.190Z,3.85
2022-08-26T15:50:02.961Z,4.28
2022-08-26T15:52:30.364Z,4.40
2022-08-26T15:54:58.324Z,4.28
2022-08-26T15:57:25.824Z,4.97
2022-08-26T15:59:54.309Z,3.92
2022-08-26T16:02:21.852Z,4.50
2022-08-26T16:04:49.393Z,4.22
2022-08-26T16:07:17.542Z,4.40
2022-08-26T16:09:45.420Z,5.15
2022-08-26T16:12:19.626Z,5.35
2022-08-26T16:14:54.723Z,5.22
2022-08-26T16:17:23.185Z,8.25
2022-08-26T16:19:50.991Z,5.65
2022-08-26T16:22:21.349Z,5.75
2022-08-26T16:24:52.543Z,5.07
2022-08-26T16:27:23.101Z,6.15
2022-08-26T16:29:54.419Z,5.00
2022-08-26T16:32:21.972Z,4.95
2022-08-26T16:34:56.295Z,5.82
2022-08-26T16:37:25.478Z,5.20
2022-08-26T16:40:00.899Z,4.95
2022-08-26T16:42:31.150Z,5.22
2022-08-26T16:45:06.561Z,4.30
2022-08-26T16:47:37.589Z,4.90
2022-08-26T16:50:09.352Z,5.05
2022-08-26T16:52:40.368Z,4.47
2022-08-26T16:55:14.376Z,4.53
2022-08-26T16:57:45.131Z,4.30
2022-08-26T17:00:34.575Z,3.88
2022-08-26T17:03:04.771Z,4.32
2022-08-26T17:05:32.188Z,4.47
2022-08-26T17:08:00.653Z,4.13
2022-08-26T17:10:33.095Z,4.53
2022-08-26T17:13:00.788Z,4.25
2022-08-26T17:15:28.392Z,4.22
2022-08-26T17:17:59.935Z,3.85
2022-08-26T17:20:30.282Z,3.53
2022-08-26T17:22:58.924Z,3.92
2022-08-26T17:25:31.910Z,10.63
2022-08-26T17:27:59.923Z,4.18
2022-08-26T17:30:32.726Z,3.50
2022-08-26T17:33:01.646Z,2.88
2022-08-26T17:35:38.581Z,3.50
2022-08-26T17:38:05.914Z,3.05
2022-08-26T17:40:35.537Z,2.90
2022-08-26T17:43:11.695Z,2.83
2022-08-26T17:45:41.229Z,3.38
2022-08-26T17:48:13.220Z,3.22
2022-08-26T17:50:49.696Z,2.47
2022-08-26T17:53:20.838Z,2.83
2022-08-26T17:55:52.785Z,3.28
2022-08-26T17:58:23.776Z,3.20
2022-08-26T18:01:03.068Z,2.95
2022-08-26T18:03:30.542Z,3.30
2022-08-26T18:05:57.972Z,3.67
2022-08-26T18:08:25.563Z,3.13
2022-08-26T18:10:53.377Z,2.80
2022-08-26T18:13:21.566Z,3.00
2022-08-26T18:15:49.455Z,2.70
2022-08-26T18:18:17.151Z,2.25
2022-08-26T18:20:46.164Z,2.30
2022-08-26T18:23:19.512Z,2.70
2022-08-26T18:25:47.656Z,2.55
2022-08-26T18:28:15.451Z,2.70
2022-08-26T18:30:45.184Z,2.78
2022-08-26T18:33:17.420Z,2.35
2022-08-26T18:35:48.368Z,2.60
2022-08-26T18:38:16.406Z,2.38
2022-08-26T18:40:45.552Z,2.42
2022-08-26T18:43:13.022Z,2.42
2022-08-26T18:45:41.155Z,2.60
2022-08-26T18:48:08.875Z,2.40
2022-08-26T18:50:45.817Z,2.30
2022-08-26T18:53:15.612Z,2.60
2022-08-26T18:55:43.096Z,2.75
2022-08-26T18:58:11.887Z,2.20
2022-08-26T19:00:39.499Z,2.10
2022-08-26T19:03:08.211Z,2.58
2022-08-26T19:05:46.102Z,2.10
2022-08-26T19:08:13.544Z,2.30
2022-08-26T19:10:41.557Z,2.20
2022-08-26T19:13:10.116Z,7.10
2022-08-26T19:15:43.037Z,4.03
2022-08-26T19:18:17.618Z,2.70
2022-08-26T19:20:47.873Z,3.03
2022-08-26T19:23:31.069Z,2.33
2022-08-26T19:26:03.503Z,2.30
2022-08-26T19:28:31.618Z,2.35
2022-08-26T19:30:59.853Z,3.45
2022-08-26T19:33:28.314Z,2.40
2022-08-26T19:35:56.414Z,2.28
2022-08-26T19:38:25.136Z,2.20
2022-08-26T19:40:55.235Z,2.33
2022-08-26T19:43:23.096Z,1.98
2022-08-26T19:45:53.697Z,2.13
2022-08-26T19:48:21.400Z,2.00
2022-08-26T19:50:51.534Z,2.17
2022-08-26T19:53:20.026Z,2.20
2022-08-26T19:55:50.605Z,2.08
2022-08-26T19:58:18.506Z,2.17
2022-08-26T20:00:46.166Z,2.30
2022-08-26T20:03:16.391Z,1.90
2022-08-26T20:05:43.847Z,2.20
2022-08-26T20:08:15.193Z,2.17
2022-08-26T20:10:52.606Z,1.90
2022-08-26T20:13:21.926Z,1.80
2022-08-26T20:15:49.346Z,2.30
2022-08-26T20:18:35.153Z,2.20
2022-08-26T20:21:21.308Z,2.00
2022-08-26T20:23:48.755Z,2.42
2022-08-26T20:26:16.904Z,2.22
2022-08-26T20:28:44.513Z,2.38
2022-08-26T20:31:12.484Z,1.95
2022-08-26T20:33:46.547Z,1.80
2022-08-26T20:36:15.553Z,2.20
2022-08-26T20:38:43.280Z,2.22
2022-08-26T20:41:11.014Z,2.40
2022-08-26T20:43:38.367Z,1.98
2022-08-26T20:46:08.364Z,2.28
2022-08-26T20:48:46.019Z,1.83
2022-08-26T20:51:13.586Z,1.98
2022-08-26T20:53:41.363Z,1.95
2022-08-26T20:56:12.616Z,2.10
2022-08-26T20:58:40.896Z,2.03
2022-08-26T21:01:09.017Z,2.05
2022-08-26T21:03:40.281Z,2.00
2022-08-26T21:06:08.225Z,2.20
2022-08-26T21:08:43.271Z,2.03
2022-08-26T21:11:12.769Z,2.05
2022-08-26T21:14:01.512Z,2.05
2022-08-26T21:16:30.413Z,2.60
2022-08-26T21:19:00.507Z,2.65
2022-08-26T21:21:28.567Z,2.00
2022-08-26T21:23:56.570Z,2.28
2022-08-26T21:26:24.749Z,2.90
2022-08-26T21:28:55.206Z,2.00
2022-08-26T21:31:27.710Z,2.15
2022-08-26T21:33:59.337Z,2.05
2022-08-26T21:36:27.369Z,1.80
2022-08-26T21:38:59.810Z,2.17
2022-08-26T21:41:28.640Z,2.20
2022-08-26T21:43:59.272Z,2.10
2022-08-26T21:46:30.051Z,2.17
2022-08-26T21:49:02.181Z,2.10
2022-08-26T21:51:35.354Z,1.95
2022-08-26T21:54:09.942Z,2.20
2022-08-26T21:56:46.700Z,2.55
2022-08-26T21:59:17.606Z,2.42
2022-08-26T22:01:45.776Z,2.30
2022-08-26T22:04:13.272Z,2.45
2022-08-26T22:06:51.857Z,2.38
2022-08-26T22:09:26.656Z,2.40
2022-08-26T22:11:56.796Z,2.08
2022-08-26T22:14:30.894Z,2.60
2022-08-26T22:16:59.890Z,2.30
2022-08-26T22:19:27.497Z,2.22
2022-08-26T22:21:56.530Z,2.50
2022-08-26T22:24:27.199Z,2.92
2022-08-26T22:26:55.721Z,2.70
2022-08-26T22:29:25.144Z,2.70
2022-08-26T22:31:53.335Z,2.10
2022-08-26T22:34:22.807Z,2.50
2022-08-26T22:36:54.067Z,2.30
2022-08-26T22:39:24.946Z,2.92
2022-08-26T22:41:55.239Z,2.72
2022-08-26T22:44:23.566Z,3.00
2022-08-26T22:46:54.329Z,3.30
2022-08-26T22:49:22.839Z,3.92
2022-08-26T22:51:52.267Z,2.97
2022-08-26T22:54:20.080Z,3.70
2022-08-26T22:56:49.057Z,3.08
2022-08-26T22:59:16.781Z,3.47
2022-08-26T23:01:44.860Z,3.10
2022-08-26T23:04:12.583Z,3.15
2022-08-26T23:06:47.444Z,3.33
2022-08-26T23:09:18.598Z,3.30
2022-08-26T23:11:48.317Z,3.92
2022-08-26T23:14:19.151Z,3.58
2022-08-26T23:16:47.494Z,4.38
2022-08-26T23:19:20.077Z,4.63
2022-08-26T23:21:49.984Z,4.20
2022-08-26T23:24:18.407Z,5.03
2022-08-26T23:26:46.880Z,4.40
2022-08-26T23:29:15.987Z,4.32
2022-08-26T23:31:43.977Z,4.63
2022-08-26T23:34:30.930Z,4.18
2022-08-26T23:37:00.118Z,4.20
2022-08-26T23:39:31.111Z,4.80
2022-08-26T23:42:01.494Z,4.53
2022-08-26T23:44:30.614Z,3.97
2022-08-26T23:46:59.382Z,4.40
2022-08-26T23:49:27.129Z,4.00
2022-08-26T23:52:13.163Z,4.03
2022-08-26T23:54:40.983Z,4.70
2022-08-26T23:57:11.968Z,4.80
2022-08-26T23:59:39.886Z,4.20
